»·PEaware :: UAL1254 KSFO-KMFR

UAL1254 :: KSFO-KMFR

FLIGHT INFORMATION

Flight Status: Arrived
Operator:
United Airlines
More flights by this operator :: More flights under this callsign
Pilot: Anonymous 12234 (12234)
Aircraft: BOEING 737-200
(B732)
More flights by this aircraft type
Origin: KSFO San Francisco Intl
United States
Destination: KMFR Rogue Valley Intl-Medford
United States
More flights between these airports :: More routes between these airports
Route: SAC J126 OED
File this flight plan on PilotEdge
Remarks:
Altitude:
(Current/Filed)
30,000ft
Speed:
(Current/Filed)
434kts
Departed: 17-Jan-18 09:46 PM
Arrived: 17-Jan-18 10:42 PM
Distance/Time
Traveled:
286nm/0:56
Distance/Time
To Go:
Arrived

Flight Plot

Page will automatically refresh every two minutes.

Flight plan parsing failed; only flown route is shown


Map Options




Map Legend


Flown Route
Filed Route
Departure Airport
Arrival Airport
Navaid (VOR, NDB)
Fix

Horizontal Profiles

Position Reports

Time Latitude Longitude Heading Altitude Ground
Speed
17-Jan-18 21:28 37.619437 -122.384813 119 22ft 0kts
17-Jan-18 21:29 37.619437 -122.384813 119 22ft 0kts
17-Jan-18 21:30 37.619437 -122.384813 119 22ft 0kts
17-Jan-18 21:31 37.619437 -122.384813 119 22ft 0kts
17-Jan-18 21:32 37.619437 -122.384813 119 22ft 0kts
17-Jan-18 21:33 37.619437 -122.384813 119 22ft 0kts
17-Jan-18 21:34 37.619437 -122.384813 119 22ft 0kts
17-Jan-18 21:35 37.619437 -122.384813 119 22ft 0kts
17-Jan-18 21:36 37.619437 -122.384813 119 22ft 0kts
17-Jan-18 21:37 37.619437 -122.384813 119 22ft 0kts
17-Jan-18 21:38 37.619437 -122.384813 119 22ft 0kts
17-Jan-18 21:39 37.619437 -122.384813 119 22ft 0kts
17-Jan-18 21:40 37.619437 -122.384813 119 22ft 0kts
17-Jan-18 21:41 37.619437 -122.384813 119 22ft 0kts
17-Jan-18 21:42 37.619437 -122.384813 119 22ft 0kts
17-Jan-18 21:43 37.619598 -122.385173 119 22ft 2kts
17-Jan-18 21:44 37.619574 -122.385638 20 22ft 1kts
17-Jan-18 21:45 37.619537 -122.385658 26 22ft 0kts
17-Jan-18 21:46 37.619537 -122.385658 26 22ft 0kts
17-Jan-18 21:47 37.620200 -122.385237 27 22ft 3kts
17-Jan-18 21:48 37.619932 -122.382679 118 22ft 21kts
17-Jan-18 21:49 37.615473 -122.380400 207 22ft 20kts
17-Jan-18 21:50 37.610620 -122.383614 209 22ft 18kts
17-Jan-18 21:51 37.608446 -122.383772 120 22ft 2kts
17-Jan-18 21:52 37.609482 -122.381871 28 22ft 44kts
17-Jan-18 21:53 37.635266 -122.352702 86 1771ft 155kts
17-Jan-18 21:54 37.665587 -122.306067 46 4238ft 196kts
17-Jan-18 21:55 37.709697 -122.247012 46 5806ft 284kts
17-Jan-18 21:56 37.768693 -122.184192 29 8977ft 296kts
17-Jan-18 21:57 37.838841 -122.124702 33 10975ft 343kts
17-Jan-18 21:58 37.916143 -122.053661 35 13355ft 363kts
17-Jan-18 21:59 37.994767 -121.979693 35 15449ft 377kts
17-Jan-18 22:00 38.076746 -121.902072 34 17349ft 389kts
17-Jan-18 22:01 38.159919 -121.823623 34 19020ft 399kts
17-Jan-18 22:02 38.247796 -121.740169 33 20560ft 409kts
17-Jan-18 22:03 38.337911 -121.654379 32 21941ft 418kts
17-Jan-18 22:04 38.434713 -121.581206 2 23144ft 410kts
17-Jan-18 22:05 38.543237 -121.596813 337 24307ft 397kts
17-Jan-18 22:06 38.647091 -121.637722 335 25385ft 400kts
17-Jan-18 22:07 38.751892 -121.681047 334 26342ft 404kts
17-Jan-18 22:08 38.855812 -121.724505 334 27182ft 408kts
17-Jan-18 22:09 38.962534 -121.769274 333 27830ft 415kts
17-Jan-18 22:10 39.071251 -121.815086 332 28464ft 421kts
17-Jan-18 22:11 39.172075 -121.857373 332 29073ft 423kts
17-Jan-18 22:12 39.283244 -121.902154 337 29653ft 431kts
17-Jan-18 22:13 39.397072 -121.942803 333 30141ft 430kts
17-Jan-18 22:14 39.510230 -121.988836 333 30231ft 435kts
17-Jan-18 22:15 39.622761 -122.035630 332 30227ft 434kts
17-Jan-18 22:16 39.734597 -122.082478 332 30226ft 433kts
17-Jan-18 22:17 39.843576 -122.128256 332 30240ft 433kts
17-Jan-18 22:18 39.946788 -122.171827 332 30228ft 433kts
17-Jan-18 22:19 40.059427 -122.216360 333 30223ft 435kts
17-Jan-18 22:20 40.168837 -122.239638 343 30214ft 448kts
17-Jan-18 22:21 40.282271 -122.279999 334 30207ft 434kts
17-Jan-18 22:22 40.396576 -122.317480 337 30192ft 438kts
17-Jan-18 22:23 40.508313 -122.349782 337 30190ft 438kts
17-Jan-18 22:24 40.622405 -122.382080 337 30186ft 438kts
17-Jan-18 22:25 40.738386 -122.414878 338 30190ft 437kts
17-Jan-18 22:26 40.852300 -122.447206 338 28646ft 431kts
17-Jan-18 22:27 40.964556 -122.479175 338 26355ft 420kts
17-Jan-18 22:28 41.073772 -122.510333 337 24168ft 411kts
17-Jan-18 22:29 41.173040 -122.538630 336 24091ft 411kts
17-Jan-18 22:30 41.282769 -122.570683 336 24050ft 419kts
17-Jan-18 22:31 41.395224 -122.603843 336 24047ft 425kts
17-Jan-18 22:32 41.503264 -122.634573 337 22568ft 406kts
17-Jan-18 22:33 41.608814 -122.665157 336 20505ft 394kts
17-Jan-18 22:34 41.713913 -122.695450 337 18461ft 385kts
17-Jan-18 22:35 41.815997 -122.724156 337 16494ft 375kts
17-Jan-18 22:36 41.916109 -122.752369 337 14589ft 366kts
17-Jan-18 22:37 42.013763 -122.780032 338 12725ft 358kts
17-Jan-18 22:38 42.108135 -122.786814 13 11155ft 361kts
17-Jan-18 22:39 42.194133 -122.747813 24 9049ft 335kts
17-Jan-18 22:40 42.250965 -122.670777 85 7554ft 286kts
17-Jan-18 22:41 42.218963 -122.613376 194 6650ft 217kts
17-Jan-18 22:42 42.208038 -122.682690 292 5594ft 240kts
17-Jan-18 22:43 42.238958 -122.752319 296 4504ft 203kts
17-Jan-18 22:44 42.274077 -122.808040 319 3284ft 195kts
17-Jan-18 22:45 42.312297 -122.840147 335 2392ft 153kts
17-Jan-18 22:46 42.350463 -122.860428 338 1667ft 146kts
17-Jan-18 22:47 42.381020 -122.876461 338 1342ft 65kts
17-Jan-18 22:48 42.384958 -122.880118 162 1342ft 9kts
17-Jan-18 22:49 42.381112 -122.878096 159 1342ft 20kts
17-Jan-18 22:50 42.374951 -122.874864 158 1342ft 25kts
17-Jan-18 22:51 42.369862 -122.872393 183 1342ft 10kts
17-Jan-18 22:52 42.368992 -122.873463 248 1342ft 0kts
17-Jan-18 22:53 42.368992 -122.873463 247 1342ft 0kts
17-Jan-18 22:54 42.368992 -122.873463 247 1342ft 0kts

Navigation Log

Ident Type
Flight plan parsing failed, navigation log unavailable